sensor_id;sensor_type;location;lat;lon;timestamp;temperature;humidity
26099;DHT22;13860;52.370;6.764;2023-08-24T00:01:33;20.50;77.80
26099;DHT22;13860;52.370;6.764;2023-08-24T00:04:41;20.50;78.20
26099;DHT22;13860;52.370;6.764;2023-08-24T00:07:49;20.50;79.20
26099;DHT22;13860;52.370;6.764;2023-08-24T00:10:57;20.40;80.60
26099;DHT22;13860;52.370;6.764;2023-08-24T00:14:02;20.40;84.90
26099;DHT22;13860;52.370;6.764;2023-08-24T00:17:10;20.30;83.70
26099;DHT22;13860;52.370;6.764;2023-08-24T00:20:16;20.30;78.10
26099;DHT22;13860;52.370;6.764;2023-08-24T00:23:27;20.30;79.50
26099;DHT22;13860;52.370;6.764;2023-08-24T00:26:33;20.30;81.40
26099;DHT22;13860;52.370;6.764;2023-08-24T00:29:40;20.10;85.80
26099;DHT22;13860;52.370;6.764;2023-08-24T00:32:47;20.20;86.50
26099;DHT22;13860;52.370;6.764;2023-08-24T00:35:59;20.10;88.00
26099;DHT22;13860;52.370;6.764;2023-08-24T00:39:07;20.00;87.50
26099;DHT22;13860;52.370;6.764;2023-08-24T00:42:16;20.10;89.30
26099;DHT22;13860;52.370;6.764;2023-08-24T00:45:22;20.20;87.30
26099;DHT22;13860;52.370;6.764;2023-08-24T00:48:31;20.10;84.10
26099;DHT22;13860;52.370;6.764;2023-08-24T00:51:37;20.10;87.60
26099;DHT22;13860;52.370;6.764;2023-08-24T00:54:47;20.00;89.60
26099;DHT22;13860;52.370;6.764;2023-08-24T00:57:53;20.00;89.00
26099;DHT22;13860;52.370;6.764;2023-08-24T01:01:01;20.00;89.80
26099;DHT22;13860;52.370;6.764;2023-08-24T01:04:07;19.90;90.10
26099;DHT22;13860;52.370;6.764;2023-08-24T01:07:15;19.90;86.80
26099;DHT22;13860;52.370;6.764;2023-08-24T01:10:25;19.90;86.70
26099;DHT22;13860;52.370;6.764;2023-08-24T01:13:42;19.80;82.50
26099;DHT22;13860;52.370;6.764;2023-08-24T01:16:53;19.80;79.50
26099;DHT22;13860;52.370;6.764;2023-08-24T01:20:07;19.70;79.30
26099;DHT22;13860;52.370;6.764;2023-08-24T01:23:36;19.70;80.10
26099;DHT22;13860;52.370;6.764;2023-08-24T01:26:52;19.70;80.80
26099;DHT22;13860;52.370;6.764;2023-08-24T01:29:59;19.70;82.00
26099;DHT22;13860;52.370;6.764;2023-08-24T01:33:07;19.70;84.40
26099;DHT22;13860;52.370;6.764;2023-08-24T01:36:15;19.60;90.20
26099;DHT22;13860;52.370;6.764;2023-08-24T01:39:31;19.60;86.70
26099;DHT22;13860;52.370;6.764;2023-08-24T01:42:46;19.50;87.60
26099;DHT22;13860;52.370;6.764;2023-08-24T01:45:56;19.60;92.10
26099;DHT22;13860;52.370;6.764;2023-08-24T01:49:04;19.30;87.10
26099;DHT22;13860;52.370;6.764;2023-08-24T01:52:12;19.50;90.70
26099;DHT22;13860;52.370;6.764;2023-08-24T01:55:19;19.50;90.90
26099;DHT22;13860;52.370;6.764;2023-08-24T01:58:29;19.50;90.90
26099;DHT22;13860;52.370;6.764;2023-08-24T02:01:34;19.60;90.00
26099;DHT22;13860;52.370;6.764;2023-08-24T02:04:41;19.40;91.50
26099;DHT22;13860;52.370;6.764;2023-08-24T02:07:47;19.40;88.10
26099;DHT22;13860;52.370;6.764;2023-08-24T02:10:55;19.40;88.40
26099;DHT22;13860;52.370;6.764;2023-08-24T02:14:03;19.50;90.20
26099;DHT22;13860;52.370;6.764;2023-08-24T02:17:14;19.40;90.30
26099;DHT22;13860;52.370;6.764;2023-08-24T02:20:20;19.50;90.30
26099;DHT22;13860;52.370;6.764;2023-08-24T02:23:28;19.50;88.40
26099;DHT22;13860;52.370;6.764;2023-08-24T02:26:33;19.40;88.40
26099;DHT22;13860;52.370;6.764;2023-08-24T02:29:44;19.40;88.80
26099;DHT22;13860;52.370;6.764;2023-08-24T02:32:51;19.40;90.90
26099;DHT22;13860;52.370;6.764;2023-08-24T02:35:58;19.40;87.00
26099;DHT22;13860;52.370;6.764;2023-08-24T02:39:04;19.40;90.10
26099;DHT22;13860;52.370;6.764;2023-08-24T02:42:12;19.30;88.50
26099;DHT22;13860;52.370;6.764;2023-08-24T02:45:23;19.40;89.50
26099;DHT22;13860;52.370;6.764;2023-08-24T02:48:31;19.40;90.70
26099;DHT22;13860;52.370;6.764;2023-08-24T02:51:37;19.40;92.10
26099;DHT22;13860;52.370;6.764;2023-08-24T02:54:45;19.40;91.60
26099;DHT22;13860;52.370;6.764;2023-08-24T02:57:51;19.40;85.90
26099;DHT22;13860;52.370;6.764;2023-08-24T03:01:04;19.40;92.20
26099;DHT22;13860;52.370;6.764;2023-08-24T03:04:10;19.40;90.50
26099;DHT22;13860;52.370;6.764;2023-08-24T03:07:20;19.30;83.50
26099;DHT22;13860;52.370;6.764;2023-08-24T03:10:26;19.40;85.00
26099;DHT22;13860;52.370;6.764;2023-08-24T03:13:37;19.40;86.60
26099;DHT22;13860;52.370;6.764;2023-08-24T03:16:45;19.40;88.70
26099;DHT22;13860;52.370;6.764;2023-08-24T03:19:53;19.40;90.20
26099;DHT22;13860;52.370;6.764;2023-08-24T03:23:02;19.40;91.00
26099;DHT22;13860;52.370;6.764;2023-08-24T03:26:10;19.40;87.00
26099;DHT22;13860;52.370;6.764;2023-08-24T03:29:16;19.40;88.90
26099;DHT22;13860;52.370;6.764;2023-08-24T03:32:26;19.40;90.20
26099;DHT22;13860;52.370;6.764;2023-08-24T03:35:32;19.50;90.70
26099;DHT22;13860;52.370;6.764;2023-08-24T03:38:40;19.50;87.00
26099;DHT22;13860;52.370;6.764;2023-08-24T03:41:45;19.40;88.10
26099;DHT22;13860;52.370;6.764;2023-08-24T03:44:53;19.40;89.70
26099;DHT22;13860;52.370;6.764;2023-08-24T03:48:01;19.40;91.40
26099;DHT22;13860;52.370;6.764;2023-08-24T03:51:08;19.40;91.40
26099;DHT22;13860;52.370;6.764;2023-08-24T03:54:13;19.40;87.80
26099;DHT22;13860;52.370;6.764;2023-08-24T03:57:21;19.50;86.60
26099;DHT22;13860;52.370;6.764;2023-08-24T04:00:27;19.50;89.40
26099;DHT22;13860;52.370;6.764;2023-08-24T04:03:39;19.30;90.00
26099;DHT22;13860;52.370;6.764;2023-08-24T04:06:44;19.30;90.30
26099;DHT22;13860;52.370;6.764;2023-08-24T04:09:53;19.40;91.70
26099;DHT22;13860;52.370;6.764;2023-08-24T04:12:59;19.30;92.00
26099;DHT22;13860;52.370;6.764;2023-08-24T04:16:06;19.30;88.20
26099;DHT22;13860;52.370;6.764;2023-08-24T04:19:14;19.30;90.30
26099;DHT22;13860;52.370;6.764;2023-08-24T04:22:22;19.30;90.60
26099;DHT22;13860;52.370;6.764;2023-08-24T04:25:27;19.30;91.00
26099;DHT22;13860;52.370;6.764;2023-08-24T04:28:35;19.30;91.20
26099;DHT22;13860;52.370;6.764;2023-08-24T04:31:40;19.20;84.70
26099;DHT22;13860;52.370;6.764;2023-08-24T04:34:50;19.20;84.70
26099;DHT22;13860;52.370;6.764;2023-08-24T04:37:58;19.20;85.40
26099;DHT22;13860;52.370;6.764;2023-08-24T04:41:07;19.20;84.90
26099;DHT22;13860;52.370;6.764;2023-08-24T04:44:14;19.10;86.70
26099;DHT22;13860;52.370;6.764;2023-08-24T04:47:22;19.10;87.20
26099;DHT22;13860;52.370;6.764;2023-08-24T04:50:30;19.10;87.10
26099;DHT22;13860;52.370;6.764;2023-08-24T04:53:37;19.10;87.30
26099;DHT22;13860;52.370;6.764;2023-08-24T04:56:42;19.00;87.50
26099;DHT22;13860;52.370;6.764;2023-08-24T04:59:50;18.90;90.40
26099;DHT22;13860;52.370;6.764;2023-08-24T05:02:55;19.00;90.80
26099;DHT22;13860;52.370;6.764;2023-08-24T05:06:05;18.90;91.40
26099;DHT22;13860;52.370;6.764;2023-08-24T05:09:11;19.00;92.20
26099;DHT22;13860;52.370;6.764;2023-08-24T05:12:19;19.00;90.50
26099;DHT22;13860;52.370;6.764;2023-08-24T05:15:24;18.90;90.60
26099;DHT22;13860;52.370;6.764;2023-08-24T05:18:31;18.90;90.50
26099;DHT22;13860;52.370;6.764;2023-08-24T05:21:42;19.00;91.00
26099;DHT22;13860;52.370;6.764;2023-08-24T05:24:50;18.90;91.20
26099;DHT22;13860;52.370;6.764;2023-08-24T05:27:55;18.90;91.30
26099;DHT22;13860;52.370;6.764;2023-08-24T05:31:03;19.00;91.50
26099;DHT22;13860;52.370;6.764;2023-08-24T05:34:08;18.90;91.30
26099;DHT22;13860;52.370;6.764;2023-08-24T05:37:18;19.00;91.10
26099;DHT22;13860;52.370;6.764;2023-08-24T05:40:23;18.90;91.80
26099;DHT22;13860;52.370;6.764;2023-08-24T05:43:31;18.90;91.60
26099;DHT22;13860;52.370;6.764;2023-08-24T05:46:36;18.80;89.80
26099;DHT22;13860;52.370;6.764;2023-08-24T05:49:44;18.80;87.10
26099;DHT22;13860;52.370;6.764;2023-08-24T05:52:51;18.90;90.10
26099;DHT22;13860;52.370;6.764;2023-08-24T05:55:59;18.90;90.10
26099;DHT22;13860;52.370;6.764;2023-08-24T05:59:04;18.70;73.40
26099;DHT22;13860;52.370;6.764;2023-08-24T06:02:11;18.80;74.10
26099;DHT22;13860;52.370;6.764;2023-08-24T06:05:17;18.90;74.40
26099;DHT22;13860;52.370;6.764;2023-08-24T06:08:27;19.10;74.70
26099;DHT22;13860;52.370;6.764;2023-08-24T06:11:33;19.10;74.40
26099;DHT22;13860;52.370;6.764;2023-08-24T06:14:40;19.20;74.40
26099;DHT22;13860;52.370;6.764;2023-08-24T06:17:45;19.30;75.10
26099;DHT22;13860;52.370;6.764;2023-08-24T06:20:55;19.50;74.50
26099;DHT22;13860;52.370;6.764;2023-08-24T06:24:03;19.60;74.40
26099;DHT22;13860;52.370;6.764;2023-08-24T06:27:10;19.80;74.60
26099;DHT22;13860;52.370;6.764;2023-08-24T06:30:16;19.90;74.30
26099;DHT22;13860;52.370;6.764;2023-08-24T06:33:27;20.10;74.30
26099;DHT22;13860;52.370;6.764;2023-08-24T06:36:33;21.00;75.60
26099;DHT22;13860;52.370;6.764;2023-08-24T06:39:43;20.40;74.10
26099;DHT22;13860;52.370;6.764;2023-08-24T06:42:49;20.50;74.20
26099;DHT22;13860;52.370;6.764;2023-08-24T06:45:59;21.80;74.90
26099;DHT22;13860;52.370;6.764;2023-08-24T06:49:05;20.80;74.10
26099;DHT22;13860;52.370;6.764;2023-08-24T06:52:13;21.00;73.80
26099;DHT22;13860;52.370;6.764;2023-08-24T06:55:21;21.20;73.80
26099;DHT22;13860;52.370;6.764;2023-08-24T06:58:28;21.40;73.60
26099;DHT22;13860;52.370;6.764;2023-08-24T07:01:34;21.50;74.30
26099;DHT22;13860;52.370;6.764;2023-08-24T07:04:41;21.60;73.90
26099;DHT22;13860;52.370;6.764;2023-08-24T07:07:47;21.80;73.10
26099;DHT22;13860;52.370;6.764;2023-08-24T07:10:59;22.00;73.10
26099;DHT22;13860;52.370;6.764;2023-08-24T07:14:04;22.10;72.90
26099;DHT22;13860;52.370;6.764;2023-08-24T07:17:12;22.30;72.70
26099;DHT22;13860;52.370;6.764;2023-08-24T07:20:17;22.50;72.60
26099;DHT22;13860;52.370;6.764;2023-08-24T07:23:25;22.60;72.40
26099;DHT22;13860;52.370;6.764;2023-08-24T07:26:33;22.70;72.30
26099;DHT22;13860;52.370;6.764;2023-08-24T07:29:41;22.80;72.10
26099;DHT22;13860;52.370;6.764;2023-08-24T07:32:46;23.00;72.00
26099;DHT22;13860;52.370;6.764;2023-08-24T07:35:54;23.20;71.90
26099;DHT22;13860;52.370;6.764;2023-08-24T07:38:59;23.30;71.70
26099;DHT22;13860;52.370;6.764;2023-08-24T07:42:09;23.40;71.60
26099;DHT22;13860;52.370;6.764;2023-08-24T07:45:15;23.70;75.20
26099;DHT22;13860;52.370;6.764;2023-08-24T07:48:22;24.40;74.30
26099;DHT22;13860;52.370;6.764;2023-08-24T07:51:27;23.90;75.40
26099;DHT22;13860;52.370;6.764;2023-08-24T07:54:35;24.00;71.40
26099;DHT22;13860;52.370;6.764;2023-08-24T07:57:43;24.10;70.60
26099;DHT22;13860;52.370;6.764;2023-08-24T08:00:53;24.30;70.40
26099;DHT22;13860;52.370;6.764;2023-08-24T08:03:59;24.30;70.20
26099;DHT22;13860;52.370;6.764;2023-08-24T08:07:06;24.50;70.20
26099;DHT22;13860;52.370;6.764;2023-08-24T08:10:12;24.60;70.00
26099;DHT22;13860;52.370;6.764;2023-08-24T08:13:25;24.60;72.20
26099;DHT22;13860;52.370;6.764;2023-08-24T08:16:35;24.80;69.70
26099;DHT22;13860;52.370;6.764;2023-08-24T08:19:43;24.90;72.70
26099;DHT22;13860;52.370;6.764;2023-08-24T08:22:49;25.00;72.60
26099;DHT22;13860;52.370;6.764;2023-08-24T08:25:56;25.40;72.60
26099;DHT22;13860;52.370;6.764;2023-08-24T08:29:04;25.20;70.00
26099;DHT22;13860;52.370;6.764;2023-08-24T08:32:12;25.40;69.20
26099;DHT22;13860;52.370;6.764;2023-08-24T08:35:18;25.50;69.10
26099;DHT22;13860;52.370;6.764;2023-08-24T08:38:26;25.60;69.00
26099;DHT22;13860;52.370;6.764;2023-08-24T08:41:33;25.70;68.90
26099;DHT22;13860;52.370;6.764;2023-08-24T08:44:50;25.90;68.80
26099;DHT22;13860;52.370;6.764;2023-08-24T08:47:58;26.10;68.60
26099;DHT22;13860;52.370;6.764;2023-08-24T08:51:06;26.30;68.50
26099;DHT22;13860;52.370;6.764;2023-08-24T08:54:12;26.50;68.40
26099;DHT22;13860;52.370;6.764;2023-08-24T08:57:25;26.60;71.70
26099;DHT22;13860;52.370;6.764;2023-08-24T09:00:37;26.80;70.80
26099;DHT22;13860;52.370;6.764;2023-08-24T09:03:45;27.00;67.70
26099;DHT22;13860;52.370;6.764;2023-08-24T09:06:51;27.20;69.80
26099;DHT22;13860;52.370;6.764;2023-08-24T09:10:00;27.30;69.40
26099;DHT22;13860;52.370;6.764;2023-08-24T09:13:06;27.60;69.40
26099;DHT22;13860;52.370;6.764;2023-08-24T09:16:16;27.60;68.40
26099;DHT22;13860;52.370;6.764;2023-08-24T09:19:28;27.70;67.10
26099;DHT22;13860;52.370;6.764;2023-08-24T09:22:36;27.80;67.90
26099;DHT22;13860;52.370;6.764;2023-08-24T09:25:45;28.00;69.30
26099;DHT22;13860;52.370;6.764;2023-08-24T09:28:54;28.00;65.90
26099;DHT22;13860;52.370;6.764;2023-08-24T09:32:02;28.20;65.80
26099;DHT22;13860;52.370;6.764;2023-08-24T09:35:12;28.20;65.20
26099;DHT22;13860;52.370;6.764;2023-08-24T09:38:19;28.30;65.30
26099;DHT22;13860;52.370;6.764;2023-08-24T09:41:37;28.40;65.10
26099;DHT22;13860;52.370;6.764;2023-08-24T09:44:43;28.50;64.70
26099;DHT22;13860;52.370;6.764;2023-08-24T09:47:54;28.80;65.20
26099;DHT22;13860;52.370;6.764;2023-08-24T09:51:03;28.70;64.60
26099;DHT22;13860;52.370;6.764;2023-08-24T09:54:11;28.70;64.50
26099;DHT22;13860;52.370;6.764;2023-08-24T09:57:17;28.80;64.40
26099;DHT22;13860;52.370;6.764;2023-08-24T10:00:26;28.90;64.10
26099;DHT22;13860;52.370;6.764;2023-08-24T10:03:38;29.00;63.80
26099;DHT22;13860;52.370;6.764;2023-08-24T10:06:50;29.10;63.60
26099;DHT22;13860;52.370;6.764;2023-08-24T10:09:59;29.10;63.40
26099;DHT22;13860;52.370;6.764;2023-08-24T10:13:14;29.30;63.30
26099;DHT22;13860;52.370;6.764;2023-08-24T10:16:24;29.30;63.00
26099;DHT22;13860;52.370;6.764;2023-08-24T10:19:36;29.40;63.00
26099;DHT22;13860;52.370;6.764;2023-08-24T10:22:42;29.50;62.70
26099;DHT22;13860;52.370;6.764;2023-08-24T10:25:51;29.70;62.90
26099;DHT22;13860;52.370;6.764;2023-08-24T10:28:57;29.70;62.50
26099;DHT22;13860;52.370;6.764;2023-08-24T10:32:05;29.80;62.20
26099;DHT22;13860;52.370;6.764;2023-08-24T10:35:14;29.90;61.90
26099;DHT22;13860;52.370;6.764;2023-08-24T10:38:27;30.00;61.60
26099;DHT22;13860;52.370;6.764;2023-08-24T10:41:48;30.20;61.40
26099;DHT22;13860;52.370;6.764;2023-08-24T10:44:55;30.30;61.00
26099;DHT22;13860;52.370;6.764;2023-08-24T10:48:01;30.30;60.90
26099;DHT22;13860;52.370;6.764;2023-08-24T10:51:22;30.50;60.80
26099;DHT22;13860;52.370;6.764;2023-08-24T10:54:30;30.60;60.50
26099;DHT22;13860;52.370;6.764;2023-08-24T10:57:39;30.60;60.40
26099;DHT22;13860;52.370;6.764;2023-08-24T11:00:49;30.70;60.30
26099;DHT22;13860;52.370;6.764;2023-08-24T11:03:56;30.70;60.20
26099;DHT22;13860;52.370;6.764;2023-08-24T11:07:04;30.80;60.10
26099;DHT22;13860;52.370;6.764;2023-08-24T11:10:12;30.90;60.00
26099;DHT22;13860;52.370;6.764;2023-08-24T11:13:19;30.90;60.00
26099;DHT22;13860;52.370;6.764;2023-08-24T11:16:38;30.90;59.90
26099;DHT22;13860;52.370;6.764;2023-08-24T11:19:48;30.90;59.60
26099;DHT22;13860;52.370;6.764;2023-08-24T11:22:58;31.10;62.70
26099;DHT22;13860;52.370;6.764;2023-08-24T11:26:04;31.00;62.00
26099;DHT22;13860;52.370;6.764;2023-08-24T11:29:14;31.00;60.00
26099;DHT22;13860;52.370;6.764;2023-08-24T11:32:20;31.00;64.00
26099;DHT22;13860;52.370;6.764;2023-08-24T11:35:28;31.10;59.00
26099;DHT22;13860;52.370;6.764;2023-08-24T11:38:40;31.10;58.90
26099;DHT22;13860;52.370;6.764;2023-08-24T11:41:58;31.20;61.50
26099;DHT22;13860;52.370;6.764;2023-08-24T11:45:11;31.30;61.20
26099;DHT22;13860;52.370;6.764;2023-08-24T11:48:24;31.30;60.60
26099;DHT22;13860;52.370;6.764;2023-08-24T11:54:54;31.30;57.80
26099;DHT22;13860;52.370;6.764;2023-08-24T11:58:03;31.20;58.00
26099;DHT22;13860;52.370;6.764;2023-08-24T12:01:11;31.20;60.20
26099;DHT22;13860;52.370;6.764;2023-08-24T12:04:17;31.20;64.20
26099;DHT22;13860;52.370;6.764;2023-08-24T12:07:25;31.20;62.20
26099;DHT22;13860;52.370;6.764;2023-08-24T12:10:41;31.10;59.90
26099;DHT22;13860;52.370;6.764;2023-08-24T12:13:50;30.90;60.30
26099;DHT22;13860;52.370;6.764;2023-08-24T12:16:56;31.10;58.20
26099;DHT22;13860;52.370;6.764;2023-08-24T12:20:04;31.00;58.40
26099;DHT22;13860;52.370;6.764;2023-08-24T12:23:15;30.70;57.60
26099;DHT22;13860;52.370;6.764;2023-08-24T12:26:25;30.90;57.60
26099;DHT22;13860;52.370;6.764;2023-08-24T12:29:31;30.90;57.60
26099;DHT22;13860;52.370;6.764;2023-08-24T12:32:48;30.80;58.20
26099;DHT22;13860;52.370;6.764;2023-08-24T12:35:55;30.80;57.40
26099;DHT22;13860;52.370;6.764;2023-08-24T12:39:03;30.70;57.50
26099;DHT22;13860;52.370;6.764;2023-08-24T12:42:12;30.70;57.70
26099;DHT22;13860;52.370;6.764;2023-08-24T12:45:20;30.70;57.50
26099;DHT22;13860;52.370;6.764;2023-08-24T12:48:25;30.70;57.50
26099;DHT22;13860;52.370;6.764;2023-08-24T12:51:32;30.70;57.50
26099;DHT22;13860;52.370;6.764;2023-08-24T12:54:38;30.70;57.60
26099;DHT22;13860;52.370;6.764;2023-08-24T12:57:48;30.60;57.50
26099;DHT22;13860;52.370;6.764;2023-08-24T13:00:53;30.60;57.40
26099;DHT22;13860;52.370;6.764;2023-08-24T13:04:01;30.60;57.40
26099;DHT22;13860;52.370;6.764;2023-08-24T13:07:06;30.60;60.70
26099;DHT22;13860;52.370;6.764;2023-08-24T13:10:14;30.60;57.70
26099;DHT22;13860;52.370;6.764;2023-08-24T13:13:22;30.60;59.20
26099;DHT22;13860;52.370;6.764;2023-08-24T13:16:29;30.40;57.20
26099;DHT22;13860;52.370;6.764;2023-08-24T13:19:35;30.40;57.60
26099;DHT22;13860;52.370;6.764;2023-08-24T13:22:42;30.30;58.70
26099;DHT22;13860;52.370;6.764;2023-08-24T13:25:47;30.20;57.10
26099;DHT22;13860;52.370;6.764;2023-08-24T13:28:57;30.20;57.10
26099;DHT22;13860;52.370;6.764;2023-08-24T13:32:04;30.20;57.10
26099;DHT22;13860;52.370;6.764;2023-08-24T13:35:11;30.20;57.20
26099;DHT22;13860;52.370;6.764;2023-08-24T13:38:17;30.10;57.20
26099;DHT22;13860;52.370;6.764;2023-08-24T13:41:24;30.10;57.30
26099;DHT22;13860;52.370;6.764;2023-08-24T13:44:32;30.00;57.40
26099;DHT22;13860;52.370;6.764;2023-08-24T13:47:40;30.10;59.80
26099;DHT22;13860;52.370;6.764;2023-08-24T13:50:50;29.90;57.40
26099;DHT22;13860;52.370;6.764;2023-08-24T13:53:58;29.90;57.50
26099;DHT22;13860;52.370;6.764;2023-08-24T13:57:03;29.80;57.60
26099;DHT22;13860;52.370;6.764;2023-08-24T14:00:15;29.80;61.50
26099;DHT22;13860;52.370;6.764;2023-08-24T14:03:20;29.70;57.70
26099;DHT22;13860;52.370;6.764;2023-08-24T14:06:28;29.60;57.80
26099;DHT22;13860;52.370;6.764;2023-08-24T14:09:34;29.60;57.90
26099;DHT22;13860;52.370;6.764;2023-08-24T14:12:51;29.50;58.10
26099;DHT22;13860;52.370;6.764;2023-08-24T14:15:59;29.50;61.60
26099;DHT22;13860;52.370;6.764;2023-08-24T14:19:07;29.40;59.30
26099;DHT22;13860;52.370;6.764;2023-08-24T14:22:12;29.20;58.20
26099;DHT22;13860;52.370;6.764;2023-08-24T14:25:20;29.20;58.40
26099;DHT22;13860;52.370;6.764;2023-08-24T14:28:48;29.10;58.50
26099;DHT22;13860;52.370;6.764;2023-08-24T14:31:58;28.80;59.40
26099;DHT22;13860;52.370;6.764;2023-08-24T14:35:04;29.00;60.00
26099;DHT22;13860;52.370;6.764;2023-08-24T14:38:12;28.80;58.80
26099;DHT22;13860;52.370;6.764;2023-08-24T14:41:17;28.80;59.20
26099;DHT22;13860;52.370;6.764;2023-08-24T14:44:25;28.70;59.30
26099;DHT22;13860;52.370;6.764;2023-08-24T14:47:33;28.60;59.30
26099;DHT22;13860;52.370;6.764;2023-08-24T14:50:43;28.50;60.20
26099;DHT22;13860;52.370;6.764;2023-08-24T14:53:49;28.40;59.50
26099;DHT22;13860;52.370;6.764;2023-08-24T14:56:57;28.40;60.30
26099;DHT22;13860;52.370;6.764;2023-08-24T15:00:03;28.40;61.70
26099;DHT22;13860;52.370;6.764;2023-08-24T15:03:17;28.20;61.40
26099;DHT22;13860;52.370;6.764;2023-08-24T15:06:23;28.20;60.60
26099;DHT22;13860;52.370;6.764;2023-08-24T15:09:31;28.10;60.10
26099;DHT22;13860;52.370;6.764;2023-08-24T15:12:36;28.10;60.30
26099;DHT22;13860;52.370;6.764;2023-08-24T15:15:46;28.00;60.30
26099;DHT22;13860;52.370;6.764;2023-08-24T15:18:54;27.90;60.70
26099;DHT22;13860;52.370;6.764;2023-08-24T15:22:02;27.90;60.80
26099;DHT22;13860;52.370;6.764;2023-08-24T15:25:08;27.90;61.50
26099;DHT22;13860;52.370;6.764;2023-08-24T15:28:16;28.00;61.50
26099;DHT22;13860;52.370;6.764;2023-08-24T15:31:21;27.40;61.20
26099;DHT22;13860;52.370;6.764;2023-08-24T15:34:31;27.80;62.50
26099;DHT22;13860;52.370;6.764;2023-08-24T15:37:38;27.80;61.20
26099;DHT22;13860;52.370;6.764;2023-08-24T15:40:52;27.80;61.90
26099;DHT22;13860;52.370;6.764;2023-08-24T15:43:57;27.70;62.10
26099;DHT22;13860;52.370;6.764;2023-08-24T15:47:05;27.70;61.50
26099;DHT22;13860;52.370;6.764;2023-08-24T15:50:13;27.60;61.50
26099;DHT22;13860;52.370;6.764;2023-08-24T15:53:21;27.60;61.90
26099;DHT22;13860;52.370;6.764;2023-08-24T15:56:27;27.50;61.80
26099;DHT22;13860;52.370;6.764;2023-08-24T15:59:34;27.40;61.80
26099;DHT22;13860;52.370;6.764;2023-08-24T16:02:40;27.40;63.20
26099;DHT22;13860;52.370;6.764;2023-08-24T16:05:55;27.40;62.70
26099;DHT22;13860;52.370;6.764;2023-08-24T16:09:01;28.70;63.20
26099;DHT22;13860;52.370;6.764;2023-08-24T16:12:12;27.20;62.20
26099;DHT22;13860;52.370;6.764;2023-08-24T16:15:17;27.20;62.30
26099;DHT22;13860;52.370;6.764;2023-08-24T16:18:25;27.20;62.60
26099;DHT22;13860;52.370;6.764;2023-08-24T16:21:33;27.10;62.80
26099;DHT22;13860;52.370;6.764;2023-08-24T16:24:40;27.00;62.80
26099;DHT22;13860;52.370;6.764;2023-08-24T16:27:47;26.90;62.90
26099;DHT22;13860;52.370;6.764;2023-08-24T16:30:55;27.00;63.60
26099;DHT22;13860;52.370;6.764;2023-08-24T16:34:01;26.90;63.30
26099;DHT22;13860;52.370;6.764;2023-08-24T16:37:11;26.80;63.40
26099;DHT22;13860;52.370;6.764;2023-08-24T16:40:19;27.00;65.70
26099;DHT22;13860;52.370;6.764;2023-08-24T16:43:27;26.80;64.10
26099;DHT22;13860;52.370;6.764;2023-08-24T16:46:36;26.80;65.60
26099;DHT22;13860;52.370;6.764;2023-08-24T16:49:43;26.80;65.10
26099;DHT22;13860;52.370;6.764;2023-08-24T16:52:51;26.80;66.90
26099;DHT22;13860;52.370;6.764;2023-08-24T16:55:59;26.80;69.10
26099;DHT22;13860;52.370;6.764;2023-08-24T16:59:05;26.80;68.50
26099;DHT22;13860;52.370;6.764;2023-08-24T17:02:15;26.60;64.50
26099;DHT22;13860;52.370;6.764;2023-08-24T17:05:25;26.60;64.60
26099;DHT22;13860;52.370;6.764;2023-08-24T17:08:34;26.60;64.70
26099;DHT22;13860;52.370;6.764;2023-08-24T17:11:40;26.60;64.80
26099;DHT22;13860;52.370;6.764;2023-08-24T17:14:47;26.60;64.90
26099;DHT22;13860;52.370;6.764;2023-08-24T17:17:53;26.50;64.90
26099;DHT22;13860;52.370;6.764;2023-08-24T17:21:02;26.60;65.10
26099;DHT22;13860;52.370;6.764;2023-08-24T17:24:10;26.50;65.10
26099;DHT22;13860;52.370;6.764;2023-08-24T17:27:18;26.50;65.10
26099;DHT22;13860;52.370;6.764;2023-08-24T17:30:23;26.50;65.10
26099;DHT22;13860;52.370;6.764;2023-08-24T17:33:31;26.40;65.10
26099;DHT22;13860;52.370;6.764;2023-08-24T17:36:37;26.40;65.40
26099;DHT22;13860;52.370;6.764;2023-08-24T17:39:47;26.40;69.20
26099;DHT22;13860;52.370;6.764;2023-08-24T17:42:52;26.40;67.70
26099;DHT22;13860;52.370;6.764;2023-08-24T17:45:59;26.20;65.10
26099;DHT22;13860;52.370;6.764;2023-08-24T17:49:05;26.20;65.20
26099;DHT22;13860;52.370;6.764;2023-08-24T17:52:12;26.20;65.20
26099;DHT22;13860;52.370;6.764;2023-08-24T17:55:20;26.10;65.20
26099;DHT22;13860;52.370;6.764;2023-08-24T17:58:27;26.00;65.30
26099;DHT22;13860;52.370;6.764;2023-08-24T18:01:33;26.00;65.40
26099;DHT22;13860;52.370;6.764;2023-08-24T18:04:43;26.00;65.50
26099;DHT22;13860;52.370;6.764;2023-08-24T18:07:49;25.90;65.40
26099;DHT22;13860;52.370;6.764;2023-08-24T18:11:04;25.90;65.50
26099;DHT22;13860;52.370;6.764;2023-08-24T18:14:09;25.90;65.80
26099;DHT22;13860;52.370;6.764;2023-08-24T18:17:17;25.80;65.60
26099;DHT22;13860;52.370;6.764;2023-08-24T18:20:23;25.80;65.80
26099;DHT22;13860;52.370;6.764;2023-08-24T18:23:31;25.80;65.80
26099;DHT22;13860;52.370;6.764;2023-08-24T18:26:39;25.80;65.90
26099;DHT22;13860;52.370;6.764;2023-08-24T18:29:46;25.70;66.00
26099;DHT22;13860;52.370;6.764;2023-08-24T18:32:52;25.70;66.00
26099;DHT22;13860;52.370;6.764;2023-08-24T18:36:00;25.60;66.00
26099;DHT22;13860;52.370;6.764;2023-08-24T18:39:05;25.60;66.10
26099;DHT22;13860;52.370;6.764;2023-08-24T18:42:17;25.60;66.30
26099;DHT22;13860;52.370;6.764;2023-08-24T18:45:22;25.50;66.30
26099;DHT22;13860;52.370;6.764;2023-08-24T18:48:34;25.50;66.40
26099;DHT22;13860;52.370;6.764;2023-08-24T18:51:39;25.50;66.60
26099;DHT22;13860;52.370;6.764;2023-08-24T18:54:47;25.50;69.00
26099;DHT22;13860;52.370;6.764;2023-08-24T19:01:05;25.30;66.00
26099;DHT22;13860;52.370;6.764;2023-08-24T19:04:13;25.30;66.60
26099;DHT22;13860;52.370;6.764;2023-08-24T19:07:21;25.20;66.60
26099;DHT22;13860;52.370;6.764;2023-08-24T19:10:27;25.20;66.70
26099;DHT22;13860;52.370;6.764;2023-08-24T19:13:39;25.10;66.80
26099;DHT22;13860;52.370;6.764;2023-08-24T19:16:44;25.00;66.80
26099;DHT22;13860;52.370;6.764;2023-08-24T19:19:51;25.00;66.90
26099;DHT22;13860;52.370;6.764;2023-08-24T19:22:57;24.90;67.00
26099;DHT22;13860;52.370;6.764;2023-08-24T19:26:04;24.90;67.10
26099;DHT22;13860;52.370;6.764;2023-08-24T19:29:12;24.80;67.20
26099;DHT22;13860;52.370;6.764;2023-08-24T19:32:19;24.80;67.30
26099;DHT22;13860;52.370;6.764;2023-08-24T19:35:25;24.70;67.30
26099;DHT22;13860;52.370;6.764;2023-08-24T19:38:32;24.70;67.40
26099;DHT22;13860;52.370;6.764;2023-08-24T19:41:38;24.70;67.60
26099;DHT22;13860;52.370;6.764;2023-08-24T19:45:05;24.50;67.60
26099;DHT22;13860;52.370;6.764;2023-08-24T19:48:10;24.20;71.70
26099;DHT22;13860;52.370;6.764;2023-08-24T19:51:18;24.40;70.20
26099;DHT22;13860;52.370;6.764;2023-08-24T19:54:24;24.30;67.90